KDNL

Daniel Field Airport

Augusta, Georgia, USA
KDNL 151130Z 1512/1612 VRB03KT P6SM FEW250 FM151400 24005KT P6SM SCT050
Issued Valid From Valid To
Aug-15 @ 11:30 UTC
(an hour ago)
Aug-15 @ 12:00 UTC
(41 minutes ago)
Aug-16 @ 12:00 UTC
(in 23 hours)
Aug-15 @ 12:00 to Aug-15 @ 14:00
KDNL 151130Z 1512/1612 VRB03KT P6SM FEW250
Wind Visibility Clouds
Variable at 3 knots Greater than 6 miles
  • Few at 25,000' AGL
From Aug-15 @ 14:00 to Aug-16 @ 12:00
FM151400 24005KT P6SM SCT050
Wind Visibility Clouds
240° at 5 knots Greater than 6 miles
  • Scattered at 5,000' AGL
KDNL 151130Z 1512/1612 VRB03KT P6SM FEW250 FM151400 24005KT P6SM SCT050
Issued Aug-15 @ 11:30 UTC
(an hour ago)
Valid From Aug-15 @ 12:00 UTC
(41 minutes ago)
Valid To Aug-16 @ 12:00 UTC
(in 23 hours)
Aug-15 @ 12:00 - Aug-15 @ 14:00
Wind Visibility
Variable at 3 knots Greater than 6 miles
Clouds
  • Few at 25,000' AGL
From Aug-15 @ 14:00 - Aug-16 @ 12:00
Wind Visibility
240° at 5 knots Greater than 6 miles
Clouds
  • Scattered at 5,000' AGL